Time;durP1;ratioP1;P1;durP2;ratioP2;P2;SDS_P1;SDS_P2;PMS_P1;PMS_P2;Temp;Humidity;BMP_temperature;BMP_pressure;BME280_temperature;BME280_humidity;BME280_pressure;Samples;Min_cycle;Max_cycle;Signal;HPM_P1;HPM_P2
2022/10/10 00:01:36;;;;;;;3.30;2.07;;;;;;;16.87;47.73;99698.63;4974111;28;20264;-86
2022/10/10 00:04:02;;;;;;;6.90;2.20;;;;;;;16.79;48.25;99700.94;4974340;28;20568;-86
2022/10/10 00:06:29;;;;;;;4.93;2.37;;;;;;;16.72;48.48;99697.03;4974061;28;20183;-86
2022/10/10 00:08:54;;;;;;;8.63;2.27;;;;;;;16.85;48.40;99695.25;4972985;28;20221;-86
2022/10/10 00:11:22;;;;;;;6.80;2.77;;;;;;;16.85;48.43;99692.59;4975877;28;20182;-86
2022/10/10 00:13:48;;;;;;;3.40;2.23;;;;;;;16.75;49.37;99691.50;4976896;28;20543;-86
2022/10/10 00:16:14;;;;;;;3.67;1.97;;;;;;;16.74;49.74;99695.13;4976915;28;20276;-86
2022/10/10 00:18:41;;;;;;;5.93;2.10;;;;;;;16.79;49.35;99696.50;4977774;28;20182;-86
2022/10/10 00:21:08;;;;;;;4.43;2.07;;;;;;;16.75;49.43;99702.09;4976806;28;20277;-86
2022/10/10 00:23:33;;;;;;;3.83;2.10;;;;;;;16.82;49.38;99700.75;4978010;28;20234;-86
2022/10/10 00:25:59;;;;;;;6.90;2.13;;;;;;;16.91;49.29;99692.16;4977941;28;20187;-86
2022/10/10 00:28:25;;;;;;;4.30;2.00;;;;;;;16.80;49.98;99694.69;4977762;28;20260;-86
2022/10/10 00:30:51;;;;;;;3.90;2.27;;;;;;;16.81;50.17;99701.69;4977731;28;20655;-86
2022/10/10 00:33:17;;;;;;;4.83;2.13;;;;;;;16.61;50.89;99705.72;4977780;28;20195;-86
2022/10/10 00:35:42;;;;;;;5.67;2.37;;;;;;;16.69;50.71;99699.91;4976555;28;20186;-86
2022/10/10 00:38:08;;;;;;;5.53;2.37;;;;;;;16.67;50.46;99709.72;4977447;28;20189;-86
2022/10/10 00:40:34;;;;;;;7.17;2.13;;;;;;;16.65;50.32;99711.63;4977400;28;20551;-87
2022/10/10 00:42:59;;;;;;;5.07;2.10;;;;;;;16.68;50.10;99716.72;4977411;28;20189;-87
2022/10/10 00:45:38;;;;;;;4.17;2.27;;;;;;;16.68;50.35;99722.00;4977354;28;20692;-86
2022/10/10 00:48:17;;;;;;;4.87;2.50;;;;;;;16.65;50.38;99723.06;4977879;28;20181;-86
2022/10/10 00:50:56;;;;;;;5.73;2.47;;;;;;;16.49;50.56;99725.88;4977564;28;20170;-87
2022/10/10 00:53:28;;;;;;;9.97;3.30;;;;;;;16.44;50.61;99727.13;4977527;28;20225;-86
2022/10/10 00:55:54;;;;;;;4.87;1.97;;;;;;;16.40;50.68;99734.41;4976227;28;20192;-87
2022/10/10 00:58:20;;;;;;;6.00;2.80;;;;;;;16.44;50.55;99735.06;4977090;28;20221;-86
2022/10/10 01:00:46;;;;;;;4.80;2.77;;;;;;;16.34;50.65;99718.97;4976102;28;20179;-86
2022/10/10 01:03:12;;;;;;;3.77;1.60;;;;;;;16.36;50.72;99719.72;4977009;28;20193;-86
2022/10/10 01:05:37;;;;;;;3.37;1.80;;;;;;;16.39;50.77;99716.00;4977259;28;20178;-86
2022/10/10 01:08:04;;;;;;;3.33;2.00;;;;;;;16.35;50.57;99725.94;4976956;28;20734;-86
2022/10/10 01:10:53;;;;;;;3.67;2.03;;;;;;;16.32;50.68;99722.66;4977095;28;20208;-86
2022/10/10 01:13:51;;;;;;;4.53;2.10;;;;;;;16.30;50.57;99732.50;4956171;28;20263;-86
2022/10/10 01:16:40;;;;;;;3.80;1.83;;;;;;;16.37;50.25;99733.78;4975798;28;20527;-86
2022/10/10 01:19:34;;;;;;;5.47;2.67;;;;;;;16.38;50.20;99735.47;4975800;28;20189;-86
2022/10/10 01:22:05;;;;;;;5.07;2.37;;;;;;;16.38;50.26;99735.47;4977100;28;20221;-86
2022/10/10 01:25:16;;;;;;;8.30;1.90;;;;;;;16.34;50.00;99734.84;4976622;28;20177;-86
2022/10/10 01:27:55;;;;;;;4.80;2.27;;;;;;;16.17;50.89;99727.16;4973358;28;20693;-86
2022/10/10 01:30:22;;;;;;;5.30;1.93;;;;;;;16.25;50.94;99735.44;4975388;28;20282;-86
2022/10/10 01:33:00;;;;;;;6.10;2.40;;;;;;;16.14;51.09;99737.13;4976489;28;20224;-86
2022/10/10 01:35:57;;;;;;;3.50;1.83;;;;;;;16.11;51.31;99742.59;4977000;28;20622;-86
2022/10/10 01:38:50;;;;;;;5.83;2.17;;;;;;;15.95;52.24;99738.31;4976625;28;20537;-86
2022/10/10 01:41:25;;;;;;;2.90;1.77;;;;;;;15.88;52.83;99741.44;4976879;28;20227;-86
2022/10/10 01:43:55;;;;;;;4.00;2.23;;;;;;;15.92;53.13;99745.59;4975361;28;20244;-86
2022/10/10 01:46:21;;;;;;;3.93;2.43;;;;;;;15.96;52.87;99753.22;4975262;28;20289;-86
2022/10/10 01:48:50;;;;;;;6.13;2.43;;;;;;;15.97;52.72;99754.06;4976371;28;20281;-86
2022/10/10 01:51:47;;;;;;;4.93;2.53;;;;;;;15.99;52.57;99757.47;4976108;28;20212;-86
2022/10/10 01:54:40;;;;;;;4.93;2.13;;;;;;;15.95;52.45;99745.41;4976658;28;20166;-86
2022/10/10 01:57:11;;;;;;;3.83;2.20;;;;;;;15.93;52.51;99749.94;4976321;28;20178;-86
2022/10/10 02:00:06;;;;;;;4.57;2.73;;;;;;;15.88;52.44;99746.72;4976221;28;20174;-86
2022/10/10 02:02:44;;;;;;;5.53;2.23;;;;;;;15.81;52.78;99754.22;4973675;28;20217;-87
2022/10/10 02:05:22;;;;;;;3.80;1.97;;;;;;;15.81;52.61;99756.84;4974932;28;20178;-86
2022/10/10 02:07:57;;;;;;;4.47;2.33;;;;;;;15.83;52.86;99760.25;4974878;28;20188;-86
2022/10/10 02:10:30;;;;;;;3.97;2.00;;;;;;;15.76;52.92;99763.38;4975960;28;20205;-86
2022/10/10 02:12:58;;;;;;;10.10;2.87;;;;;;;15.78;52.79;99758.84;4974759;28;20185;-86
2022/10/10 02:15:27;;;;;;;4.70;2.67;;;;;;;15.74;53.03;99760.00;4975707;28;20285;-87
2022/10/10 02:17:56;;;;;;;3.97;2.27;;;;;;;15.69;53.09;99762.94;4974682;28;20242;-87
2022/10/10 02:20:24;;;;;;;4.40;2.40;;;;;;;15.69;52.94;99770.00;4974656;28;20176;-86
2022/10/10 02:22:50;;;;;;;3.93;1.90;;;;;;;15.70;52.69;99767.25;4974582;28;20269;-86
2022/10/10 02:25:20;;;;;;;6.10;2.43;;;;;;;15.65;52.95;99761.41;4975509;28;20251;-87
2022/10/10 02:27:56;;;;;;;4.47;2.57;;;;;;;15.58;53.25;99775.97;4974470;28;20195;-87
2022/10/10 02:30:22;;;;;;;6.33;2.37;;;;;;;15.54;53.13;99768.34;4975429;28;20214;-86
2022/10/10 02:32:54;;;;;;;4.63;1.97;;;;;;;15.41;53.27;99773.47;4975594;28;20180;-87
2022/10/10 02:35:27;;;;;;;7.00;2.37;;;;;;;15.44;53.44;99791.78;4975126;28;20195;-86
2022/10/10 02:37:53;;;;;;;6.27;2.60;;;;;;;15.44;53.53;99783.00;4974395;28;20180;-86
2022/10/10 02:40:24;;;;;;;4.63;2.30;;;;;;;15.57;53.17;99779.56;4975230;28;20238;-86
2022/10/10 02:42:51;;;;;;;4.83;2.53;;;;;;;15.55;52.87;99780.59;4975506;28;20179;-86
2022/10/10 02:45:19;;;;;;;3.50;2.13;;;;;;;15.44;53.34;99777.72;4975151;28;20185;-86
2022/10/10 02:47:45;;;;;;;3.87;2.37;;;;;;;15.23;54.21;99783.41;4975100;28;20188;-86
2022/10/10 02:50:10;;;;;;;6.63;2.70;;;;;;;15.36;54.03;99786.13;4974041;28;20201;-86
2022/10/10 02:52:36;;;;;;;4.30;2.30;;;;;;;15.45;54.05;99780.28;4975261;28;20177;-86
2022/10/10 02:55:02;;;;;;;4.73;2.47;;;;;;;15.48;53.45;99784.56;4974014;28;20199;-86
2022/10/10 02:57:28;;;;;;;3.47;2.13;;;;;;;15.44;53.79;99793.56;4973908;28;20180;-87
2022/10/10 02:59:53;;;;;;;6.33;2.40;;;;;;;15.39;53.43;99794.72;4975375;28;20176;-86
2022/10/10 03:02:19;;;;;;;4.50;2.40;;;;;;;15.42;53.75;99795.47;4974870;28;20260;-86
2022/10/10 03:04:47;;;;;;;4.27;2.33;;;;;;;15.44;53.59;99797.06;4975070;28;20546;-86
2022/10/10 03:07:13;;;;;;;5.80;2.50;;;;;;;15.51;53.33;99800.22;4975016;28;20184;-86
2022/10/10 03:09:38;;;;;;;10.80;2.60;;;;;;;15.48;53.25;99800.41;4974952;28;20219;-86
2022/10/10 03:12:04;;;;;;;4.33;2.63;;;;;;;15.38;53.64;99808.88;4974943;28;20347;-86
2022/10/10 03:14:29;;;;;;;5.73;2.53;;;;;;;15.22;54.38;99797.56;4974902;28;20183;-86
2022/10/10 03:16:55;;;;;;;6.47;2.77;;;;;;;15.21;54.13;99805.56;4973687;28;20549;-86
2022/10/10 03:19:20;;;;;;;6.13;3.13;;;;;;;15.16;54.33;99810.28;4973611;28;20219;-86
2022/10/10 03:21:46;;;;;;;5.37;2.87;;;;;;;15.21;54.04;99814.34;4973557;28;20184;-86
2022/10/10 03:24:11;;;;;;;6.77;2.43;;;;;;;15.20;54.00;99807.34;4974515;28;20176;-87
2022/10/10 03:26:37;;;;;;;3.97;2.57;;;;;;;15.21;53.84;99814.34;4973512;28;20666;-87
2022/10/10 03:29:03;;;;;;;6.73;2.73;;;;;;;15.13;53.92;99811.31;4974636;28;20262;-87
2022/10/10 03:31:29;;;;;;;6.60;2.43;;;;;;;15.12;54.01;99817.53;4973408;28;20196;-87
2022/10/10 03:33:55;;;;;;;10.20;2.83;;;;;;;15.06;54.10;99814.41;4974865;28;20680;-87
2022/10/10 03:36:20;;;;;;;5.40;3.20;;;;;;;15.01;54.17;99816.50;4974639;28;20188;-87
2022/10/10 03:38:46;;;;;;;6.93;2.30;;;;;;;14.99;54.48;99816.56;4974310;28;20173;-86
2022/10/10 03:41:11;;;;;;;3.93;2.50;;;;;;;14.99;54.15;99818.38;4974341;28;20180;-86
2022/10/10 03:43:37;;;;;;;5.00;2.43;;;;;;;14.87;55.00;99824.38;4973326;28;20279;-86
2022/10/10 03:46:03;;;;;;;5.37;2.77;;;;;;;14.77;55.48;99827.56;4972409;28;20187;-86
2022/10/10 03:48:28;;;;;;;7.67;3.03;;;;;;;14.60;56.57;99824.19;4974127;28;20518;-86
2022/10/10 03:50:54;;;;;;;4.83;2.50;;;;;;;14.66;56.94;99826.47;4973253;28;20199;-86
2022/10/10 03:53:19;;;;;;;5.73;2.70;;;;;;;14.68;57.01;99825.44;4974493;28;20196;-86
2022/10/10 03:55:45;;;;;;;5.77;2.80;;;;;;;14.64;56.38;99834.50;4973222;28;20196;-87
2022/10/10 03:58:13;;;;;;;11.67;3.30;;;;;;;14.64;56.17;99838.91;4973148;28;20614;-86
2022/10/10 04:00:39;;;;;;;7.27;2.97;;;;;;;14.56;55.62;99839.38;4973177;28;20183;-87
2022/10/10 04:03:05;;;;;;;5.63;3.33;;;;;;;14.56;55.53;99847.28;4973441;28;20202;-86
2022/10/10 04:05:38;;;;;;;4.87;3.07;;;;;;;14.52;55.36;99850.16;4973111;28;20271;-86
2022/10/10 04:08:04;;;;;;;10.63;3.10;;;;;;;14.55;55.01;99842.94;4974550;28;20675;-87
2022/10/10 04:10:30;;;;;;;7.07;3.13;;;;;;;14.56;54.73;99847.28;4973024;28;20736;-87
2022/10/10 04:12:57;;;;;;;7.30;3.77;;;;;;;14.54;54.59;99848.31;4974013;28;20183;-86
2022/10/10 04:15:24;;;;;;;6.57;2.87;;;;;;;14.48;54.73;99853.94;4973010;28;20187;-87
2022/10/10 04:17:50;;;;;;;8.73;4.80;;;;;;;14.50;54.84;99858.19;4973948;28;20176;-87
2022/10/10 04:20:16;;;;;;;6.83;3.63;;;;;;;14.50;54.72;99852.03;4974256;28;20323;-87
2022/10/10 04:22:43;;;;;;;11.87;3.60;;;;;;;14.48;55.04;99859.19;4973991;28;20195;-87
2022/10/10 04:25:09;;;;;;;10.50;3.53;;;;;;;14.48;55.50;99854.78;4972988;28;20273;-87
2022/10/10 04:27:34;;;;;;;7.97;2.87;;;;;;;14.46;55.29;99861.94;4972900;28;20641;-87
2022/10/10 04:29:59;;;;;;;8.87;3.97;;;;;;;14.54;55.64;99864.13;4973726;28;20251;-86
2022/10/10 04:32:25;;;;;;;7.57;3.20;;;;;;;14.58;55.19;99866.50;4974368;28;20177;-87
2022/10/10 04:34:50;;;;;;;6.43;3.60;;;;;;;14.47;55.81;99868.91;4974109;28;20638;-87
2022/10/10 04:37:16;;;;;;;9.23;3.80;;;;;;;14.53;55.63;99859.78;4972858;28;20184;-87
2022/10/10 04:39:41;;;;;;;6.83;3.63;;;;;;;14.56;55.83;99862.25;4974017;28;20629;-87
2022/10/10 04:42:06;;;;;;;5.20;2.97;;;;;;;14.60;55.54;99867.25;4973987;28;20176;-86
2022/10/10 04:44:32;;;;;;;10.10;3.17;;;;;;;14.60;55.73;99876.97;4972829;28;20187;-87
2022/10/10 04:46:57;;;;;;;6.83;3.90;;;;;;;14.59;55.82;99880.56;4974248;28;20187;-86
2022/10/10 04:49:23;;;;;;;5.03;3.13;;;;;;;14.64;55.88;99881.13;4973669;28;20199;-87
2022/10/10 04:51:48;;;;;;;6.93;3.73;;;;;;;14.60;55.85;99884.88;4973696;28;20187;-87
2022/10/10 04:54:13;;;;;;;6.93;3.87;;;;;;;14.64;56.06;99889.06;4973690;28;20679;-86
2022/10/10 04:56:41;;;;;;;6.07;3.60;;;;;;;14.68;56.07;99887.94;4973873;28;20172;-86
2022/10/10 04:59:07;;;;;;;5.87;3.60;;;;;;;14.66;56.27;99889.81;4977090;28;20178;-87
2022/10/10 05:01:33;;;;;;;8.30;3.90;;;;;;;14.65;56.33;99898.66;4977341;28;20626;-86
2022/10/10 05:03:58;;;;;;;7.87;3.90;;;;;;;14.68;56.55;99890.56;4976072;28;20202;-86
2022/10/10 05:06:23;;;;;;;5.73;3.23;;;;;;;14.77;56.52;99882.13;4976025;28;20197;-86
2022/10/10 05:08:49;;;;;;;10.07;4.07;;;;;;;14.75;56.74;99887.47;4976870;28;20743;-86
2022/10/10 05:11:14;;;;;;;5.90;3.27;;;;;;;14.78;57.21;99894.38;4976879;28;20621;-86
2022/10/10 05:13:40;;;;;;;10.20;3.87;;;;;;;14.78;57.23;99899.66;4976854;28;20176;-86
2022/10/10 05:16:05;;;;;;;8.37;3.87;;;;;;;14.82;57.49;99901.19;4976808;28;20681;-86
2022/10/10 05:18:31;;;;;;;6.47;3.73;;;;;;;14.92;57.59;99902.34;4976770;28;20184;-86
2022/10/10 05:20:56;;;;;;;7.20;3.97;;;;;;;15.13;57.76;99901.09;4976713;28;20213;-86
2022/10/10 05:23:21;;;;;;;8.63;3.80;;;;;;;15.35;57.48;99906.81;4975684;28;20180;-86
2022/10/10 05:25:49;;;;;;;5.83;3.47;;;;;;;15.63;56.77;99908.66;4976654;28;20191;-86
2022/10/10 05:28:15;;;;;;;8.67;3.90;;;;;;;15.84;55.92;99903.84;4976580;28;20187;-86
2022/10/10 05:30:40;;;;;;;6.63;3.30;;;;;;;16.02;55.87;99909.78;4976354;28;20212;-86
2022/10/10 05:33:06;;;;;;;7.77;3.83;;;;;;;16.23;55.43;99906.66;4976695;28;20181;-86
2022/10/10 05:35:31;;;;;;;7.77;3.90;;;;;;;16.48;54.89;99901.47;4975483;28;20274;-86
2022/10/10 05:37:57;;;;;;;7.63;3.87;;;;;;;16.69;54.47;99915.19;4976393;28;20635;-86
2022/10/10 05:40:23;;;;;;;6.93;3.37;;;;;;;16.83;53.84;99912.47;4976622;28;20334;-86
2022/10/10 05:42:48;;;;;;;7.57;3.50;;;;;;;17.05;52.97;99911.91;4976597;28;20285;-86
2022/10/10 05:45:14;;;;;;;8.33;3.57;;;;;;;17.17;52.80;99908.41;4975323;28;20272;-86
2022/10/10 05:47:39;;;;;;;7.53;3.50;;;;;;;17.26;52.72;99913.09;4976511;28;20250;-86
2022/10/10 05:50:06;;;;;;;7.80;3.40;;;;;;;17.37;52.50;99913.25;4976111;28;20583;-86
2022/10/10 05:52:34;;;;;;;12.30;3.60;;;;;;;17.45;52.66;99918.00;4976401;28;20263;-86
2022/10/10 05:54:59;;;;;;;5.67;3.13;;;;;;;17.55;54.01;99917.31;4975111;28;20613;-86
2022/10/10 05:57:25;;;;;;;19.40;4.13;;;;;;;17.72;53.90;99911.69;4976556;28;20179;-87
2022/10/10 05:59:50;;;;;;;5.23;2.87;;;;;;;18.09;53.53;99909.09;4975045;28;20194;-86
2022/10/10 06:02:15;;;;;;;5.17;3.33;;;;;;;18.93;51.55;99912.66;4975984;28;20216;-86
2022/10/10 06:04:41;;;;;;;6.10;3.40;;;;;;;19.78;48.26;99898.16;4974939;28;20275;-86
2022/10/10 06:07:08;;;;;;;5.80;3.27;;;;;;;20.72;46.40;99910.06;4975843;28;20243;-86
2022/10/10 06:09:33;;;;;;;14.57;3.83;;;;;;;21.45;44.87;99904.78;4975355;28;20196;-86
2022/10/10 06:11:59;;;;;;;7.67;3.57;;;;;;;22.21;43.31;99893.66;4974775;28;20199;-87
2022/10/10 06:14:24;;;;;;;6.90;3.53;;;;;;;22.88;41.90;99900.97;4976147;28;20191;-87
2022/10/10 06:16:50;;;;;;;6.87;3.20;;;;;;;23.29;41.13;99900.72;4975695;28;20259;-87
2022/10/10 06:19:16;;;;;;;7.93;3.83;;;;;;;23.73;40.27;99905.44;4974680;28;20191;-87
2022/10/10 06:21:41;;;;;;;7.37;3.50;;;;;;;24.38;39.36;99900.97;4974683;28;20626;-87
2022/10/10 06:24:07;;;;;;;9.60;4.20;;;;;;;25.02;37.18;99907.06;4974893;28;20254;-87
2022/10/10 06:26:33;;;;;;;8.53;3.90;;;;;;;25.71;36.39;99908.97;4974584;28;20223;-87
2022/10/10 06:28:58;;;;;;;7.00;2.90;;;;;;;26.26;35.59;99905.94;4974447;28;20196;-87
2022/10/10 06:31:23;;;;;;;7.73;3.33;;;;;;;26.86;34.38;99906.66;4974420;28;20689;-84
2022/10/10 06:33:51;;;;;;;9.60;3.90;;;;;;;27.27;33.26;99914.59;4975371;28;20614;-85
2022/10/10 06:36:17;;;;;;;9.40;3.30;;;;;;;27.19;33.39;99913.75;4975827;28;20177;-85
2022/10/10 06:38:44;;;;;;;7.57;2.77;;;;;;;26.99;33.38;99920.47;4975298;28;20560;-85
2022/10/10 06:41:10;;;;;;;11.73;4.03;;;;;;;26.72;33.82;99916.16;4974262;28;20172;-85
2022/10/10 06:43:36;;;;;;;11.63;4.73;;;;;;;26.17;34.28;99916.66;4975171;28;20256;-85
2022/10/10 06:46:02;;;;;;;9.07;3.37;;;;;;;25.49;35.29;99917.53;4975430;28;20186;-85
2022/10/10 06:48:30;;;;;;;9.00;3.57;;;;;;;25.20;36.23;99923.16;4975093;28;20212;-84
2022/10/10 06:51:01;;;;;;;7.47;2.90;;;;;;;25.30;36.39;99920.38;4975323;28;20584;-85
2022/10/10 06:53:27;;;;;;;5.53;2.70;;;;;;;25.33;36.16;99918.22;4975544;28;20168;-84
2022/10/10 06:55:56;;;;;;;8.07;3.87;;;;;;;25.35;35.69;99908.16;4974569;28;20190;-85
2022/10/10 06:58:23;;;;;;;12.60;4.37;;;;;;;25.14;36.23;99907.66;4975498;28;20191;-85
2022/10/10 07:00:53;;;;;;;11.83;3.80;;;;;;;25.25;36.23;99911.94;4973939;28;20180;-84
2022/10/10 07:03:20;;;;;;;8.90;3.20;;;;;;;25.40;36.32;99905.84;4975067;28;20684;-85
2022/10/10 07:05:53;;;;;;;10.97;4.10;;;;;;;25.60;35.93;99917.28;4974795;28;20180;-84
2022/10/10 07:08:19;;;;;;;9.37;4.00;;;;;;;25.38;35.89;99913.22;4975322;28;20199;-85
2022/10/10 07:10:46;;;;;;;7.43;4.57;;;;;;;25.37;36.35;99914.22;4974601;28;20283;-85
2022/10/10 07:13:11;;;;;;;13.53;4.33;;;;;;;25.48;36.01;99911.31;4973722;28;20283;-84
2022/10/10 07:15:37;;;;;;;7.03;4.13;;;;;;;25.40;36.18;99913.91;4974692;28;20195;-85
2022/10/10 07:18:03;;;;;;;5.43;3.37;;;;;;;25.27;36.16;99915.31;4974626;28;20176;-85
2022/10/10 07:20:28;;;;;;;8.60;3.57;;;;;;;25.13;36.23;99915.88;4974391;28;20252;-85
2022/10/10 07:22:53;;;;;;;7.83;3.80;;;;;;;24.93;36.71;99915.16;4973579;28;20557;-85
2022/10/10 07:25:19;;;;;;;10.40;3.87;;;;;;;24.91;37.07;99919.84;4973557;28;20188;-84
2022/10/10 07:27:44;;;;;;;6.27;3.97;;;;;;;24.77;37.28;99913.13;4973564;28;20267;-85
2022/10/10 07:30:11;;;;;;;11.63;3.83;;;;;;;24.84;38.05;99916.91;4973265;28;20250;-85
2022/10/10 07:32:36;;;;;;;6.17;3.17;;;;;;;24.87;37.26;99918.44;4974947;28;20247;-85
2022/10/10 07:35:01;;;;;;;9.93;2.83;;;;;;;24.85;37.18;99915.94;4974392;28;20192;-85
2022/10/10 07:37:27;;;;;;;4.63;3.30;;;;;;;24.85;37.33;99921.28;4973417;28;20283;-85
2022/10/10 07:39:53;;;;;;;7.37;3.93;;;;;;;24.64;37.51;99909.97;4973342;28;20176;-84
2022/10/10 07:42:18;;;;;;;12.23;3.97;;;;;;;24.56;37.87;99915.25;4974535;28;20184;-85
2022/10/10 07:44:44;;;;;;;7.90;3.23;;;;;;;24.68;37.61;99915.88;4974566;28;20203;-85
2022/10/10 07:47:09;;;;;;;6.73;3.17;;;;;;;24.62;37.72;99913.81;4974266;28;20529;-85
2022/10/10 07:49:38;;;;;;;5.40;3.27;;;;;;;24.30;38.03;99914.25;4974137;28;20606;-86
2022/10/10 07:52:03;;;;;;;6.00;2.80;;;;;;;24.25;37.66;99917.41;4974436;28;20599;-86
2022/10/10 07:54:29;;;;;;;6.43;2.87;;;;;;;24.04;38.39;99916.75;4973185;28;20246;-86
2022/10/10 07:56:56;;;;;;;9.40;3.17;;;;;;;23.92;38.30;99922.44;4974140;28;20180;-85
2022/10/10 07:59:22;;;;;;;6.13;3.13;;;;;;;23.94;38.73;99926.66;4974176;28;20259;-84
2022/10/10 08:01:48;;;;;;;9.90;3.10;;;;;;;24.05;38.66;99920.28;4973166;28;20257;-84
2022/10/10 08:04:13;;;;;;;8.17;3.03;;;;;;;24.09;38.49;99927.03;4973135;28;20588;-85
2022/10/10 08:06:39;;;;;;;6.67;2.80;;;;;;;24.06;38.81;99920.13;4973116;28;20190;-85
2022/10/10 08:09:04;;;;;;;6.13;3.50;;;;;;;24.13;38.36;99928.47;4973039;28;20303;-85
2022/10/10 08:11:30;;;;;;;7.63;3.00;;;;;;;24.20;38.44;99922.34;4974047;28;20646;-85
2022/10/10 08:13:55;;;;;;;13.50;3.40;;;;;;;24.26;38.66;99920.94;4973103;28;20199;-85
2022/10/10 08:16:21;;;;;;;7.83;3.43;;;;;;;24.25;38.07;99922.75;4973029;28;20573;-85
2022/10/10 08:18:47;;;;;;;4.73;2.63;;;;;;;24.11;38.83;99925.09;4973003;28;20180;-85
2022/10/10 08:21:14;;;;;;;4.47;2.60;;;;;;;24.47;38.64;99931.41;4973944;28;20188;-85
2022/10/10 08:23:40;;;;;;;7.60;2.67;;;;;;;24.71;38.08;99918.28;4973002;28;20180;-85
2022/10/10 08:26:08;;;;;;;7.73;3.53;;;;;;;24.94;37.68;99923.09;4974712;28;20549;-85
2022/10/10 08:28:35;;;;;;;5.97;2.47;;;;;;;24.90;37.37;99929.72;4972880;28;20184;-85
2022/10/10 08:31:05;;;;;;;13.23;3.50;;;;;;;25.01;37.15;99934.88;4973710;28;20224;-85
2022/10/10 08:33:31;;;;;;;7.30;2.97;;;;;;;24.92;36.88;99927.72;4976921;28;20172;-85
2022/10/10 08:35:56;;;;;;;5.67;2.60;;;;;;;24.97;37.22;99928.13;4976606;28;20186;-86
2022/10/10 08:38:22;;;;;;;4.93;2.80;;;;;;;25.07;36.99;99936.09;4977509;28;20173;-85
2022/10/10 08:40:50;;;;;;;4.63;2.70;;;;;;;25.16;37.42;99940.53;4976500;28;20184;-85
2022/10/10 08:43:22;;;;;;;11.03;3.57;;;;;;;25.13;36.78;99932.78;4976465;28;20271;-86
2022/10/10 08:45:49;;;;;;;7.07;2.57;;;;;;;25.13;37.16;99930.09;4977670;28;20160;-86
2022/10/10 08:48:20;;;;;;;6.60;3.23;;;;;;;25.30;36.31;99925.72;4976363;28;20238;-85
2022/10/10 08:50:51;;;;;;;5.00;2.70;;;;;;;25.54;36.24;99924.13;4976323;28;20200;-86
2022/10/10 08:53:41;;;;;;;4.87;2.00;;;;;;;25.70;36.33;99928.78;4976286;28;20211;-86
2022/10/10 08:56:15;;;;;;;6.17;2.67;;;;;;;25.82;36.01;99932.88;4976310;28;20188;-86
2022/10/10 08:58:46;;;;;;;7.07;3.17;;;;;;;26.02;35.65;99926.25;4976271;28;20173;-86
2022/10/10 09:01:18;;;;;;;4.60;2.37;;;;;;;26.16;35.23;99923.03;4976163;28;20204;-85
2022/10/10 09:03:52;;;;;;;11.23;2.53;;;;;;;25.94;35.16;99926.22;4977639;28;20168;-86
2022/10/10 09:06:50;;;;;;;5.43;2.47;;;;;;;26.16;35.89;99924.88;4977404;28;20176;-86
2022/10/10 09:09:49;;;;;;;5.43;2.97;;;;;;;26.42;34.69;99916.72;4954580;28;20216;-87
2022/10/10 09:12:14;;;;;;;10.90;3.00;;;;;;;26.66;34.84;99914.13;4975994;28;20168;-86
2022/10/10 09:14:43;;;;;;;5.77;2.57;;;;;;;26.81;34.19;99915.19;4976422;28;20685;-86
2022/10/10 09:17:33;;;;;;;5.07;2.33;;;;;;;27.01;33.91;99916.59;4975879;28;20271;-86
2022/10/10 09:20:27;;;;;;;5.50;2.53;;;;;;;26.96;33.75;99926.19;4976928;28;20172;-87
2022/10/10 09:22:56;;;;;;;7.83;2.37;;;;;;;27.14;33.77;99922.34;4968755;28;20188;-86
2022/10/10 09:25:27;;;;;;;5.43;2.03;;;;;;;27.30;33.16;99911.56;4976943;28;20176;-86
2022/10/10 09:28:02;;;;;;;4.97;2.83;;;;;;;27.38;32.50;99916.13;4976960;28;20183;-87
2022/10/10 09:30:30;;;;;;;9.80;2.57;;;;;;;27.41;33.70;99911.25;4975398;28;20228;-86
2022/10/10 09:33:23;;;;;;;5.00;2.65;;;;;;;27.58;33.20;99914.78;4976784;28;20673;-87
2022/10/10 09:35:52;;;;;;;6.93;2.33;;;;;;;27.78;32.69;99907.16;4975549;28;20193;-87
2022/10/10 09:38:38;;;;;;;4.82;2.70;;;;;;;27.92;33.06;99904.59;4975464;28;20270;-87
2022/10/10 09:41:14;;;;;;;4.75;2.25;;;;;;;27.36;33.19;99904.66;4976398;28;20183;-87
2022/10/10 09:43:40;;;;;;;7.28;2.67;;;;;;;27.59;33.34;99896.78;4976858;28;20272;-86
2022/10/10 09:46:06;;;;;;;5.25;2.45;;;;;;;27.71;32.49;99898.09;4976520;28;20182;-86
2022/10/10 09:48:42;;;;;;;3.53;2.15;;;;;;;27.89;32.39;99893.31;4975300;28;20267;-86
2022/10/10 09:51:16;;;;;;;7.47;2.45;;;;;;;28.15;31.74;99891.25;4976221;28;20168;-87
2022/10/10 09:53:46;;;;;;;5.05;2.40;;;;;;;28.25;32.00;99899.16;4975833;28;20179;-86
2022/10/10 09:56:26;;;;;;;3.97;2.28;;;;;;;28.19;31.83;99897.97;4976303;28;20603;-88
2022/10/10 09:58:53;;;;;;;6.25;2.75;;;;;;;28.38;31.33;99888.63;4975958;28;20188;-87
2022/10/10 10:01:20;;;;;;;6.22;2.72;;;;;;;28.35;31.12;99897.91;4976278;28;20169;-88
2022/10/10 10:04:08;;;;;;;3.97;2.42;;;;;;;28.37;31.95;99895.03;4974972;28;20188;-87
2022/10/10 10:06:34;;;;;;;6.78;2.30;;;;;;;28.53;31.23;99882.31;4968632;28;20189;-87
2022/10/10 10:09:01;;;;;;;5.10;2.65;;;;;;;28.62;31.52;99875.03;4975158;28;20200;-87
2022/10/10 10:11:32;;;;;;;3.78;2.63;;;;;;;28.73;31.02;99874.63;4974855;28;20185;-87
2022/10/10 10:14:01;;;;;;;4.63;2.40;;;;;;;28.79;30.07;99886.56;4974881;28;20648;-87
2022/10/10 10:16:32;;;;;;;4.65;1.70;;;;;;;29.04;30.12;99874.56;4975748;28;20183;-87
2022/10/10 10:18:58;;;;;;;7.72;2.35;;;;;;;29.23;29.64;99874.94;4975072;28;20176;-86
2022/10/10 10:21:24;;;;;;;8.23;3.50;;;;;;;29.00;29.86;99876.81;4974990;28;20243;-87
2022/10/10 10:23:52;;;;;;;3.35;1.85;;;;;;;28.92;30.02;99879.56;4975880;28;20172;-87
2022/10/10 10:26:40;;;;;;;6.20;2.30;;;;;;;29.13;30.13;99876.19;4974594;28;20207;-87
2022/10/10 10:29:25;;;;;;;5.43;2.33;;;;;;;29.12;30.04;99867.25;4974200;28;20294;-87
2022/10/10 10:32:03;;;;;;;8.70;2.13;;;;;;;29.22;29.65;99864.31;4975765;28;20165;-87
2022/10/10 10:34:34;;;;;;;4.65;2.05;;;;;;;29.22;28.94;99853.50;4975954;28;20222;-87
2022/10/10 10:37:24;;;;;;;5.13;2.15;;;;;;;28.84;29.53;99862.56;4975899;28;20626;-87
2022/10/10 10:40:05;;;;;;;5.22;2.03;;;;;;;28.45;29.72;99858.09;4974812;28;20180;-88
2022/10/10 10:42:53;;;;;;;5.95;2.05;;;;;;;28.54;30.03;99848.06;4974304;28;20192;-87
2022/10/10 10:45:39;;;;;;;3.78;2.13;;;;;;;28.92;29.45;99849.88;4975293;28;20584;-88
2022/10/10 10:48:26;;;;;;;8.70;2.63;;;;;;;28.47;30.47;99844.41;4974190;28;20173;-88
2022/10/10 10:51:01;;;;;;;4.97;1.95;;;;;;;28.82;30.22;99845.72;4975305;28;20673;-87
2022/10/10 10:53:50;;;;;;;3.25;1.77;;;;;;;28.53;30.00;99841.00;4975033;28;20160;-89
2022/10/10 10:56:34;;;;;;;3.13;1.95;;;;;;;28.76;29.77;99825.69;4974875;28;20168;-88
2022/10/10 10:59:18;;;;;;;4.03;1.95;;;;;;;28.96;29.88;99826.88;4973983;28;20180;-87
2022/10/10 11:01:53;;;;;;;3.78;1.90;;;;;;;29.14;28.99;99823.88;4975193;28;20179;-87
2022/10/10 11:04:40;;;;;;;7.50;2.40;;;;;;;29.12;29.49;99815.94;4974475;28;20645;-89
2022/10/10 11:07:17;;;;;;;7.18;2.92;;;;;;;29.11;29.56;99814.25;4973901;28;20216;-88
2022/10/10 11:10:02;;;;;;;5.30;2.60;;;;;;;29.55;28.77;99806.28;4974759;28;20199;-87
2022/10/10 11:12:39;;;;;;;4.18;1.88;;;;;;;29.49;28.72;99807.00;4974649;28;20599;-88
2022/10/10 11:15:16;;;;;;;4.28;1.88;;;;;;;29.42;28.55;99803.38;4973753;28;20184;-87
2022/10/10 11:17:49;;;;;;;5.15;2.45;;;;;;;29.71;28.79;99806.09;4974945;28;20610;-88
2022/10/10 11:20:29;;;;;;;6.53;2.40;;;;;;;30.34;27.70;99791.94;4974665;28;20177;-88
2022/10/10 11:23:10;;;;;;;3.95;1.85;;;;;;;30.67;27.37;99789.59;4973676;28;20176;-88
2022/10/10 11:25:44;;;;;;;7.65;2.30;;;;;;;30.12;27.36;99789.38;4973557;28;20179;-88
2022/10/10 11:28:16;;;;;;;5.38;2.15;;;;;;;29.93;27.56;99784.56;4974761;28;20613;-88
2022/10/10 11:31:07;;;;;;;6.03;2.15;;;;;;;29.21;28.51;99798.69;4973628;28;20231;-89
2022/10/10 11:33:37;;;;;;;5.28;1.90;;;;;;;29.49;28.89;99784.53;4969202;28;20198;-89
2022/10/10 11:36:12;;;;;;;4.82;2.15;;;;;;;29.86;28.36;99776.38;4973465;28;20660;-88
2022/10/10 11:38:43;;;;;;;4.70;2.17;;;;;;;29.74;27.97;99781.38;4974182;28;20203;-88
2022/10/10 11:41:12;;;;;;;3.25;1.58;;;;;;;29.90;27.74;99772.25;4973387;28;20243;-87
2022/10/10 11:43:54;;;;;;;5.28;1.90;;;;;;;29.42;27.94;99775.50;4974576;28;20187;-87
2022/10/10 11:46:35;;;;;;;3.30;1.92;;;;;;;28.93;29.17;99775.13;4974828;28;20223;-88